sensor_id;sensor_type;location;lat;lon;timestamp;P1;durP1;ratioP1;P2;durP2;ratioP2
8881;SDS011;4477;48.736;9.176;2022-09-13T00:01:31;4.97;;;4.43;;
8881;SDS011;4477;48.736;9.176;2022-09-13T00:03:58;3.73;;;3.43;;
8881;SDS011;4477;48.736;9.176;2022-09-13T00:06:25;4.37;;;3.97;;
8881;SDS011;4477;48.736;9.176;2022-09-13T00:08:53;4.23;;;3.83;;
8881;SDS011;4477;48.736;9.176;2022-09-13T00:11:21;7.07;;;4.23;;
8881;SDS011;4477;48.736;9.176;2022-09-13T00:13:49;4.80;;;3.90;;
8881;SDS011;4477;48.736;9.176;2022-09-13T00:16:18;3.93;;;3.60;;
8881;SDS011;4477;48.736;9.176;2022-09-13T00:18:46;3.73;;;3.43;;
8881;SDS011;4477;48.736;9.176;2022-09-13T00:21:14;4.33;;;3.47;;
8881;SDS011;4477;48.736;9.176;2022-09-13T00:23:42;3.47;;;3.17;;
8881;SDS011;4477;48.736;9.176;2022-09-13T00:26:12;3.70;;;3.40;;
8881;SDS011;4477;48.736;9.176;2022-09-13T00:28:39;3.30;;;3.00;;
8881;SDS011;4477;48.736;9.176;2022-09-13T00:31:07;3.83;;;3.10;;
8881;SDS011;4477;48.736;9.176;2022-09-13T00:33:35;3.40;;;3.10;;
8881;SDS011;4477;48.736;9.176;2022-09-13T00:36:03;3.50;;;3.20;;
8881;SDS011;4477;48.736;9.176;2022-09-13T00:38:30;4.83;;;3.10;;
8881;SDS011;4477;48.736;9.176;2022-09-13T00:40:57;3.63;;;3.23;;
8881;SDS011;4477;48.736;9.176;2022-09-13T00:43:39;4.27;;;3.27;;
8881;SDS011;4477;48.736;9.176;2022-09-13T00:46:08;3.70;;;3.40;;
8881;SDS011;4477;48.736;9.176;2022-09-13T00:48:37;3.63;;;2.97;;
8881;SDS011;4477;48.736;9.176;2022-09-13T00:51:03;3.10;;;2.60;;
8881;SDS011;4477;48.736;9.176;2022-09-13T00:53:33;2.63;;;2.40;;
8881;SDS011;4477;48.736;9.176;2022-09-13T00:56:04;3.67;;;2.43;;
8881;SDS011;4477;48.736;9.176;2022-09-13T00:58:34;2.90;;;2.30;;
8881;SDS011;4477;48.736;9.176;2022-09-13T01:01:07;3.43;;;2.90;;
8881;SDS011;4477;48.736;9.176;2022-09-13T01:03:36;2.80;;;2.30;;
8881;SDS011;4477;48.736;9.176;2022-09-13T01:06:05;3.47;;;2.33;;
8881;SDS011;4477;48.736;9.176;2022-09-13T01:08:34;3.83;;;2.30;;
8881;SDS011;4477;48.736;9.176;2022-09-13T01:11:03;2.70;;;2.47;;
8881;SDS011;4477;48.736;9.176;2022-09-13T01:13:35;2.77;;;2.47;;
8881;SDS011;4477;48.736;9.176;2022-09-13T01:16:04;3.37;;;2.60;;
8881;SDS011;4477;48.736;9.176;2022-09-13T01:18:31;2.67;;;2.40;;
8881;SDS011;4477;48.736;9.176;2022-09-13T01:24:28;3.27;;;2.40;;
8881;SDS011;4477;48.736;9.176;2022-09-13T01:27:18;2.90;;;2.70;;
8881;SDS011;4477;48.736;9.176;2022-09-13T01:35:52;3.23;;;2.80;;
8881;SDS011;4477;48.736;9.176;2022-09-13T01:38:37;5.67;;;3.30;;
8881;SDS011;4477;48.736;9.176;2022-09-13T01:41:17;3.10;;;2.90;;
8881;SDS011;4477;48.736;9.176;2022-09-13T01:43:55;3.30;;;3.00;;
8881;SDS011;4477;48.736;9.176;2022-09-13T01:46:27;3.37;;;3.03;;
8881;SDS011;4477;48.736;9.176;2022-09-13T01:48:58;5.90;;;3.03;;
8881;SDS011;4477;48.736;9.176;2022-09-13T01:51:32;4.97;;;2.90;;
8881;SDS011;4477;48.736;9.176;2022-09-13T01:54:08;4.27;;;3.00;;
8881;SDS011;4477;48.736;9.176;2022-09-13T01:56:41;3.70;;;3.40;;
8881;SDS011;4477;48.736;9.176;2022-09-13T01:59:17;4.97;;;3.27;;
8881;SDS011;4477;48.736;9.176;2022-09-13T02:01:51;4.73;;;3.40;;
8881;SDS011;4477;48.736;9.176;2022-09-13T02:04:22;7.10;;;3.83;;
8881;SDS011;4477;48.736;9.176;2022-09-13T02:06:53;8.47;;;3.53;;
8881;SDS011;4477;48.736;9.176;2022-09-13T02:09:27;3.03;;;2.63;;
8881;SDS011;4477;48.736;9.176;2022-09-13T02:11:57;4.03;;;3.60;;
8881;SDS011;4477;48.736;9.176;2022-09-13T02:14:30;4.77;;;3.37;;
8881;SDS011;4477;48.736;9.176;2022-09-13T02:17:02;3.90;;;3.50;;
8881;SDS011;4477;48.736;9.176;2022-09-13T02:19:34;3.90;;;3.50;;
8881;SDS011;4477;48.736;9.176;2022-09-13T02:22:04;4.33;;;3.90;;
8881;SDS011;4477;48.736;9.176;2022-09-13T02:24:34;5.00;;;4.00;;
8881;SDS011;4477;48.736;9.176;2022-09-13T02:27:04;3.83;;;3.40;;
8881;SDS011;4477;48.736;9.176;2022-09-13T02:29:34;4.70;;;3.60;;
8881;SDS011;4477;48.736;9.176;2022-09-13T02:32:05;3.67;;;3.20;;
8881;SDS011;4477;48.736;9.176;2022-09-13T02:34:37;3.57;;;3.27;;
8881;SDS011;4477;48.736;9.176;2022-09-13T02:37:06;4.20;;;3.80;;
8881;SDS011;4477;48.736;9.176;2022-09-13T02:39:36;4.57;;;4.17;;
8881;SDS011;4477;48.736;9.176;2022-09-13T02:42:09;4.17;;;3.80;;
8881;SDS011;4477;48.736;9.176;2022-09-13T02:44:41;6.07;;;3.70;;
8881;SDS011;4477;48.736;9.176;2022-09-13T02:47:14;6.13;;;3.60;;
8881;SDS011;4477;48.736;9.176;2022-09-13T02:49:53;4.73;;;4.17;;
8881;SDS011;4477;48.736;9.176;2022-09-13T02:52:29;6.00;;;4.43;;
8881;SDS011;4477;48.736;9.176;2022-09-13T02:55:05;5.20;;;4.70;;
8881;SDS011;4477;48.736;9.176;2022-09-13T02:57:44;5.37;;;4.60;;
8881;SDS011;4477;48.736;9.176;2022-09-13T03:00:17;6.97;;;4.70;;
8881;SDS011;4477;48.736;9.176;2022-09-13T03:02:45;5.00;;;3.90;;
8881;SDS011;4477;48.736;9.176;2022-09-13T03:05:15;4.90;;;4.40;;
8881;SDS011;4477;48.736;9.176;2022-09-13T03:07:42;4.80;;;4.30;;
8881;SDS011;4477;48.736;9.176;2022-09-13T03:10:09;5.97;;;4.30;;
8881;SDS011;4477;48.736;9.176;2022-09-13T03:12:43;5.00;;;4.30;;
8881;SDS011;4477;48.736;9.176;2022-09-13T03:15:31;5.93;;;4.47;;
8881;SDS011;4477;48.736;9.176;2022-09-13T03:18:13;5.07;;;4.57;;
8881;SDS011;4477;48.736;9.176;2022-09-13T03:20:51;6.50;;;4.10;;
8881;SDS011;4477;48.736;9.176;2022-09-13T03:23:31;4.27;;;3.87;;
8881;SDS011;4477;48.736;9.176;2022-09-13T03:28:58;6.20;;;4.47;;
8881;SDS011;4477;48.736;9.176;2022-09-13T03:31:37;5.13;;;4.53;;
8881;SDS011;4477;48.736;9.176;2022-09-13T03:34:12;5.77;;;4.20;;
8881;SDS011;4477;48.736;9.176;2022-09-13T03:36:49;6.53;;;4.40;;
8881;SDS011;4477;48.736;9.176;2022-09-13T03:39:21;6.50;;;4.70;;
8881;SDS011;4477;48.736;9.176;2022-09-13T03:41:54;7.00;;;4.33;;
8881;SDS011;4477;48.736;9.176;2022-09-13T03:44:25;6.37;;;4.70;;
8881;SDS011;4477;48.736;9.176;2022-09-13T03:46:56;6.50;;;4.33;;
8881;SDS011;4477;48.736;9.176;2022-09-13T03:49:27;4.53;;;4.13;;
8881;SDS011;4477;48.736;9.176;2022-09-13T03:51:56;4.33;;;3.97;;
8881;SDS011;4477;48.736;9.176;2022-09-13T03:54:23;4.67;;;4.20;;
8881;SDS011;4477;48.736;9.176;2022-09-13T03:59:41;6.97;;;4.70;;
8881;SDS011;4477;48.736;9.176;2022-09-13T04:02:11;5.50;;;5.00;;
8881;SDS011;4477;48.736;9.176;2022-09-13T04:04:39;5.93;;;4.83;;
8881;SDS011;4477;48.736;9.176;2022-09-13T04:07:09;5.30;;;4.83;;
8881;SDS011;4477;48.736;9.176;2022-09-13T04:09:37;4.90;;;4.50;;
8881;SDS011;4477;48.736;9.176;2022-09-13T04:12:04;5.73;;;4.53;;
8881;SDS011;4477;48.736;9.176;2022-09-13T04:14:32;5.23;;;4.63;;
8881;SDS011;4477;48.736;9.176;2022-09-13T04:16:59;5.93;;;5.30;;
8881;SDS011;4477;48.736;9.176;2022-09-13T04:19:25;8.83;;;5.30;;
8881;SDS011;4477;48.736;9.176;2022-09-13T04:21:54;5.30;;;4.80;;
8881;SDS011;4477;48.736;9.176;2022-09-13T04:24:23;7.27;;;5.10;;
8881;SDS011;4477;48.736;9.176;2022-09-13T04:26:50;5.67;;;4.97;;
8881;SDS011;4477;48.736;9.176;2022-09-13T04:29:18;5.87;;;5.27;;
8881;SDS011;4477;48.736;9.176;2022-09-13T04:31:46;5.50;;;5.00;;
8881;SDS011;4477;48.736;9.176;2022-09-13T04:34:14;5.37;;;4.87;;
8881;SDS011;4477;48.736;9.176;2022-09-13T04:36:41;5.37;;;4.87;;
8881;SDS011;4477;48.736;9.176;2022-09-13T04:39:09;5.63;;;5.13;;
8881;SDS011;4477;48.736;9.176;2022-09-13T04:41:38;5.97;;;5.30;;
8881;SDS011;4477;48.736;9.176;2022-09-13T04:44:05;5.00;;;4.60;;
8881;SDS011;4477;48.736;9.176;2022-09-13T04:46:31;5.50;;;4.60;;
8881;SDS011;4477;48.736;9.176;2022-09-13T04:48:58;5.10;;;4.40;;
8881;SDS011;4477;48.736;9.176;2022-09-13T04:51:25;7.70;;;5.40;;
8881;SDS011;4477;48.736;9.176;2022-09-13T04:53:52;10.03;;;5.60;;
8881;SDS011;4477;48.736;9.176;2022-09-13T04:56:21;5.93;;;5.20;;
8881;SDS011;4477;48.736;9.176;2022-09-13T04:58:50;6.13;;;5.20;;
8881;SDS011;4477;48.736;9.176;2022-09-13T05:01:18;8.67;;;5.67;;
8881;SDS011;4477;48.736;9.176;2022-09-13T05:03:44;6.07;;;5.47;;
8881;SDS011;4477;48.736;9.176;2022-09-13T05:06:12;10.90;;;5.37;;
8881;SDS011;4477;48.736;9.176;2022-09-13T05:08:42;5.63;;;4.97;;
8881;SDS011;4477;48.736;9.176;2022-09-13T05:11:09;5.93;;;4.97;;
8881;SDS011;4477;48.736;9.176;2022-09-13T05:13:38;4.97;;;4.57;;
8881;SDS011;4477;48.736;9.176;2022-09-13T05:16:05;6.17;;;4.87;;
8881;SDS011;4477;48.736;9.176;2022-09-13T05:18:33;6.30;;;5.53;;
8881;SDS011;4477;48.736;9.176;2022-09-13T05:21:02;5.77;;;4.50;;
8881;SDS011;4477;48.736;9.176;2022-09-13T05:23:30;5.80;;;4.90;;
8881;SDS011;4477;48.736;9.176;2022-09-13T05:25:58;9.77;;;5.73;;
8881;SDS011;4477;48.736;9.176;2022-09-13T05:28:27;6.40;;;5.20;;
8881;SDS011;4477;48.736;9.176;2022-09-13T05:30:57;5.60;;;5.10;;
8881;SDS011;4477;48.736;9.176;2022-09-13T05:33:24;5.90;;;4.53;;
8881;SDS011;4477;48.736;9.176;2022-09-13T05:35:52;5.80;;;4.80;;
8881;SDS011;4477;48.736;9.176;2022-09-13T05:38:19;5.30;;;4.90;;
8881;SDS011;4477;48.736;9.176;2022-09-13T05:40:47;6.40;;;5.00;;
8881;SDS011;4477;48.736;9.176;2022-09-13T05:43:14;6.40;;;4.53;;
8881;SDS011;4477;48.736;9.176;2022-09-13T05:45:40;7.20;;;4.93;;
8881;SDS011;4477;48.736;9.176;2022-09-13T05:48:08;5.80;;;5.20;;
8881;SDS011;4477;48.736;9.176;2022-09-13T05:50:36;7.87;;;5.67;;
8881;SDS011;4477;48.736;9.176;2022-09-13T05:53:03;6.60;;;4.93;;
8881;SDS011;4477;48.736;9.176;2022-09-13T05:55:30;6.17;;;5.20;;
8881;SDS011;4477;48.736;9.176;2022-09-13T05:57:58;6.87;;;5.57;;
8881;SDS011;4477;48.736;9.176;2022-09-13T06:00:26;5.80;;;4.83;;
8881;SDS011;4477;48.736;9.176;2022-09-13T06:02:54;5.50;;;4.90;;
8881;SDS011;4477;48.736;9.176;2022-09-13T06:05:22;7.20;;;4.93;;
8881;SDS011;4477;48.736;9.176;2022-09-13T06:07:49;6.47;;;5.40;;
8881;SDS011;4477;48.736;9.176;2022-09-13T06:10:16;5.97;;;4.73;;
8881;SDS011;4477;48.736;9.176;2022-09-13T06:12:44;5.60;;;4.30;;
8881;SDS011;4477;48.736;9.176;2022-09-13T06:15:11;5.50;;;5.00;;
8881;SDS011;4477;48.736;9.176;2022-09-13T06:17:38;4.30;;;3.90;;
8881;SDS011;4477;48.736;9.176;2022-09-13T06:20:05;4.23;;;3.83;;
8881;SDS011;4477;48.736;9.176;2022-09-13T06:22:34;4.93;;;4.00;;
8881;SDS011;4477;48.736;9.176;2022-09-13T06:25:01;6.20;;;3.93;;
8881;SDS011;4477;48.736;9.176;2022-09-13T06:27:29;3.80;;;3.50;;
8881;SDS011;4477;48.736;9.176;2022-09-13T06:29:56;6.30;;;4.97;;
8881;SDS011;4477;48.736;9.176;2022-09-13T06:32:23;6.40;;;4.57;;
8881;SDS011;4477;48.736;9.176;2022-09-13T06:34:50;6.37;;;4.20;;
8881;SDS011;4477;48.736;9.176;2022-09-13T06:37:17;4.13;;;3.73;;
8881;SDS011;4477;48.736;9.176;2022-09-13T06:39:45;4.60;;;3.90;;
8881;SDS011;4477;48.736;9.176;2022-09-13T06:42:12;4.13;;;3.73;;
8881;SDS011;4477;48.736;9.176;2022-09-13T06:44:39;5.77;;;4.07;;
8881;SDS011;4477;48.736;9.176;2022-09-13T06:47:05;6.03;;;3.70;;
8881;SDS011;4477;48.736;9.176;2022-09-13T06:49:32;8.00;;;3.70;;
8881;SDS011;4477;48.736;9.176;2022-09-13T06:51:59;4.50;;;4.10;;
8881;SDS011;4477;48.736;9.176;2022-09-13T06:54:26;6.67;;;4.10;;
8881;SDS011;4477;48.736;9.176;2022-09-13T06:56:54;6.03;;;4.73;;
8881;SDS011;4477;48.736;9.176;2022-09-13T06:59:21;4.97;;;4.40;;
8881;SDS011;4477;48.736;9.176;2022-09-13T07:01:48;8.07;;;4.13;;
8881;SDS011;4477;48.736;9.176;2022-09-13T07:04:15;8.07;;;4.53;;
8881;SDS011;4477;48.736;9.176;2022-09-13T07:06:44;5.57;;;3.60;;
8881;SDS011;4477;48.736;9.176;2022-09-13T07:09:13;5.33;;;3.90;;
8881;SDS011;4477;48.736;9.176;2022-09-13T07:11:42;5.00;;;3.67;;
8881;SDS011;4477;48.736;9.176;2022-09-13T07:14:13;7.50;;;3.83;;
8881;SDS011;4477;48.736;9.176;2022-09-13T07:16:41;7.30;;;3.50;;
8881;SDS011;4477;48.736;9.176;2022-09-13T07:19:11;5.60;;;3.40;;
8881;SDS011;4477;48.736;9.176;2022-09-13T07:21:39;7.43;;;3.50;;
8881;SDS011;4477;48.736;9.176;2022-09-13T07:24:07;5.43;;;3.33;;
8881;SDS011;4477;48.736;9.176;2022-09-13T07:26:35;3.80;;;3.00;;
8881;SDS011;4477;48.736;9.176;2022-09-13T07:29:03;3.77;;;3.00;;
8881;SDS011;4477;48.736;9.176;2022-09-13T07:31:33;5.60;;;3.40;;
8881;SDS011;4477;48.736;9.176;2022-09-13T07:34:02;5.90;;;3.23;;
8881;SDS011;4477;48.736;9.176;2022-09-13T07:36:30;6.63;;;2.83;;
8881;SDS011;4477;48.736;9.176;2022-09-13T07:38:59;5.53;;;3.63;;
8881;SDS011;4477;48.736;9.176;2022-09-13T07:41:27;5.03;;;3.30;;
8881;SDS011;4477;48.736;9.176;2022-09-13T07:43:54;5.90;;;2.97;;
8881;SDS011;4477;48.736;9.176;2022-09-13T07:46:25;4.10;;;3.00;;
8881;SDS011;4477;48.736;9.176;2022-09-13T07:48:57;4.00;;;2.83;;
8881;SDS011;4477;48.736;9.176;2022-09-13T07:51:26;5.43;;;3.10;;
8881;SDS011;4477;48.736;9.176;2022-09-13T07:53:54;3.80;;;3.00;;
8881;SDS011;4477;48.736;9.176;2022-09-13T07:56:23;3.80;;;2.90;;
8881;SDS011;4477;48.736;9.176;2022-09-13T07:58:52;5.30;;;2.70;;
8881;SDS011;4477;48.736;9.176;2022-09-13T08:01:25;2.73;;;2.20;;
8881;SDS011;4477;48.736;9.176;2022-09-13T08:03:53;4.80;;;2.63;;
8881;SDS011;4477;48.736;9.176;2022-09-13T08:06:23;3.60;;;2.50;;
8881;SDS011;4477;48.736;9.176;2022-09-13T08:08:52;3.33;;;2.40;;
8881;SDS011;4477;48.736;9.176;2022-09-13T08:11:19;4.40;;;2.40;;
8881;SDS011;4477;48.736;9.176;2022-09-13T08:13:47;2.85;;;2.13;;
8881;SDS011;4477;48.736;9.176;2022-09-13T08:16:15;3.28;;;2.25;;
8881;SDS011;4477;48.736;9.176;2022-09-13T08:18:43;3.38;;;1.95;;
8881;SDS011;4477;48.736;9.176;2022-09-13T08:21:11;2.30;;;1.90;;
8881;SDS011;4477;48.736;9.176;2022-09-13T08:23:39;3.95;;;2.05;;
8881;SDS011;4477;48.736;9.176;2022-09-13T08:26:07;2.10;;;1.90;;
8881;SDS011;4477;48.736;9.176;2022-09-13T08:28:35;3.13;;;2.10;;
8881;SDS011;4477;48.736;9.176;2022-09-13T08:31:04;3.22;;;2.17;;
8881;SDS011;4477;48.736;9.176;2022-09-13T08:33:32;6.15;;;2.47;;
8881;SDS011;4477;48.736;9.176;2022-09-13T08:36:00;3.67;;;2.15;;
8881;SDS011;4477;48.736;9.176;2022-09-13T08:38:27;3.90;;;2.10;;
8881;SDS011;4477;48.736;9.176;2022-09-13T08:40:57;2.50;;;2.13;;
8881;SDS011;4477;48.736;9.176;2022-09-13T08:43:31;6.07;;;2.35;;
8881;SDS011;4477;48.736;9.176;2022-09-13T08:46:09;2.25;;;1.90;;
8881;SDS011;4477;48.736;9.176;2022-09-13T08:48:46;10.50;;;2.47;;
8881;SDS011;4477;48.736;9.176;2022-09-13T08:51:21;5.10;;;2.17;;
8881;SDS011;4477;48.736;9.176;2022-09-13T08:53:53;2.90;;;2.00;;
8881;SDS011;4477;48.736;9.176;2022-09-13T08:56:24;5.30;;;2.40;;
8881;SDS011;4477;48.736;9.176;2022-09-13T08:59:12;5.75;;;2.35;;
8881;SDS011;4477;48.736;9.176;2022-09-13T09:01:49;3.83;;;2.60;;
8881;SDS011;4477;48.736;9.176;2022-09-13T09:04:29;12.30;;;2.90;;
8881;SDS011;4477;48.736;9.176;2022-09-13T09:07:03;3.75;;;2.30;;
8881;SDS011;4477;48.736;9.176;2022-09-13T09:09:38;7.03;;;2.78;;
8881;SDS011;4477;48.736;9.176;2022-09-13T09:12:13;5.63;;;2.58;;
8881;SDS011;4477;48.736;9.176;2022-09-13T09:14:44;2.13;;;1.83;;
8881;SDS011;4477;48.736;9.176;2022-09-13T09:17:20;4.32;;;2.20;;
8881;SDS011;4477;48.736;9.176;2022-09-13T09:19:51;3.13;;;1.70;;
8881;SDS011;4477;48.736;9.176;2022-09-13T09:22:21;4.32;;;2.00;;
8881;SDS011;4477;48.736;9.176;2022-09-13T09:24:53;2.92;;;2.05;;
8881;SDS011;4477;48.736;9.176;2022-09-13T09:27:22;4.45;;;2.13;;
8881;SDS011;4477;48.736;9.176;2022-09-13T09:29:50;7.20;;;2.03;;
8881;SDS011;4477;48.736;9.176;2022-09-13T09:32:26;4.80;;;1.75;;
8881;SDS011;4477;48.736;9.176;2022-09-13T09:35:14;3.28;;;1.65;;
8881;SDS011;4477;48.736;9.176;2022-09-13T09:37:54;4.60;;;1.75;;
8881;SDS011;4477;48.736;9.176;2022-09-13T09:40:36;2.97;;;1.73;;
8881;SDS011;4477;48.736;9.176;2022-09-13T09:43:09;3.10;;;1.77;;
8881;SDS011;4477;48.736;9.176;2022-09-13T09:45:40;4.35;;;1.60;;
8881;SDS011;4477;48.736;9.176;2022-09-13T09:48:11;2.85;;;1.70;;
8881;SDS011;4477;48.736;9.176;2022-09-13T09:50:45;2.78;;;1.50;;
8881;SDS011;4477;48.736;9.176;2022-09-13T09:53:17;2.05;;;1.25;;
8881;SDS011;4477;48.736;9.176;2022-09-13T09:55:51;2.50;;;1.20;;
8881;SDS011;4477;48.736;9.176;2022-09-13T09:58:36;3.63;;;1.40;;
8881;SDS011;4477;48.736;9.176;2022-09-13T10:01:04;4.15;;;1.20;;
8881;SDS011;4477;48.736;9.176;2022-09-13T10:03:40;2.47;;;1.15;;
8881;SDS011;4477;48.736;9.176;2022-09-13T10:06:08;4.35;;;1.42;;
8881;SDS011;4477;48.736;9.176;2022-09-13T10:08:39;3.35;;;1.30;;
8881;SDS011;4477;48.736;9.176;2022-09-13T10:11:07;1.98;;;1.30;;
8881;SDS011;4477;48.736;9.176;2022-09-13T10:13:36;1.60;;;0.90;;
8881;SDS011;4477;48.736;9.176;2022-09-13T10:16:06;2.10;;;1.20;;
8881;SDS011;4477;48.736;9.176;2022-09-13T10:18:51;2.00;;;1.23;;
8881;SDS011;4477;48.736;9.176;2022-09-13T10:21:22;1.95;;;1.00;;
8881;SDS011;4477;48.736;9.176;2022-09-13T10:23:51;1.50;;;1.10;;
8881;SDS011;4477;48.736;9.176;2022-09-13T10:26:41;4.10;;;1.00;;
8881;SDS011;4477;48.736;9.176;2022-09-13T10:29:12;1.85;;;1.00;;
8881;SDS011;4477;48.736;9.176;2022-09-13T10:31:41;1.63;;;1.08;;
8881;SDS011;4477;48.736;9.176;2022-09-13T10:34:11;1.48;;;1.10;;
8881;SDS011;4477;48.736;9.176;2022-09-13T10:36:46;1.38;;;1.10;;
8881;SDS011;4477;48.736;9.176;2022-09-13T10:39:18;2.33;;;1.05;;
8881;SDS011;4477;48.736;9.176;2022-09-13T10:41:48;1.98;;;1.08;;
8881;SDS011;4477;48.736;9.176;2022-09-13T10:44:27;1.48;;;0.82;;
8881;SDS011;4477;48.736;9.176;2022-09-13T10:46:58;2.03;;;1.08;;
8881;SDS011;4477;48.736;9.176;2022-09-13T10:49:41;1.52;;;0.80;;
8881;SDS011;4477;48.736;9.176;2022-09-13T10:52:24;1.88;;;0.80;;
8881;SDS011;4477;48.736;9.176;2022-09-13T10:54:52;1.40;;;0.85;;
8881;SDS011;4477;48.736;9.176;2022-09-13T10:57:32;1.15;;;0.85;;
8881;SDS011;4477;48.736;9.176;2022-09-13T11:00:05;1.17;;;1.08;;
8881;SDS011;4477;48.736;9.176;2022-09-13T11:02:38;3.03;;;0.65;;
8881;SDS011;4477;48.736;9.176;2022-09-13T11:05:20;0.90;;;0.70;;
8881;SDS011;4477;48.736;9.176;2022-09-13T11:07:55;0.60;;;0.57;;
8881;SDS011;4477;48.736;9.176;2022-09-13T11:10:39;0.60;;;0.50;;
8881;SDS011;4477;48.736;9.176;2022-09-13T11:13:16;1.88;;;0.60;;
8881;SDS011;4477;48.736;9.176;2022-09-13T11:15:54;0.90;;;0.70;;
8881;SDS011;4477;48.736;9.176;2022-09-13T11:18:32;1.20;;;0.50;;
8881;SDS011;4477;48.736;9.176;2022-09-13T11:21:20;2.00;;;0.70;;
8881;SDS011;4477;48.736;9.176;2022-09-13T11:24:18;3.05;;;0.70;;
8881;SDS011;4477;48.736;9.176;2022-09-13T11:26:54;3.80;;;0.90;;
8881;SDS011;4477;48.736;9.176;2022-09-13T11:29:34;2.53;;;0.90;;
8881;SDS011;4477;48.736;9.176;2022-09-13T11:32:19;1.30;;;0.82;;
8881;SDS011;4477;48.736;9.176;2022-09-13T11:35:01;1.42;;;0.70;;
8881;SDS011;4477;48.736;9.176;2022-09-13T11:37:44;1.08;;;0.65;;
8881;SDS011;4477;48.736;9.176;2022-09-13T11:43:14;1.42;;;0.65;;
8881;SDS011;4477;48.736;9.176;2022-09-13T11:46:00;2.28;;;0.52;;
8881;SDS011;4477;48.736;9.176;2022-09-13T11:48:45;1.83;;;0.60;;
8881;SDS011;4477;48.736;9.176;2022-09-13T11:51:38;1.77;;;0.60;;
8881;SDS011;4477;48.736;9.176;2022-09-13T11:57:03;1.90;;;0.60;;
8881;SDS011;4477;48.736;9.176;2022-09-13T11:59:35;0.88;;;0.70;;
8881;SDS011;4477;48.736;9.176;2022-09-13T12:02:10;1.17;;;0.70;;
8881;SDS011;4477;48.736;9.176;2022-09-13T12:04:49;2.25;;;0.80;;
8881;SDS011;4477;48.736;9.176;2022-09-13T12:07:23;2.40;;;0.88;;
8881;SDS011;4477;48.736;9.176;2022-09-13T12:09:59;1.10;;;0.65;;
8881;SDS011;4477;48.736;9.176;2022-09-13T12:12:31;2.03;;;0.70;;
8881;SDS011;4477;48.736;9.176;2022-09-13T12:15:02;3.25;;;0.75;;
8881;SDS011;4477;48.736;9.176;2022-09-13T12:17:35;3.55;;;0.80;;
8881;SDS011;4477;48.736;9.176;2022-09-13T12:20:11;1.40;;;0.70;;
8881;SDS011;4477;48.736;9.176;2022-09-13T12:22:41;1.52;;;0.60;;
8881;SDS011;4477;48.736;9.176;2022-09-13T12:25:15;5.15;;;0.88;;
8881;SDS011;4477;48.736;9.176;2022-09-13T12:27:47;1.75;;;0.70;;
8881;SDS011;4477;48.736;9.176;2022-09-13T12:30:20;1.40;;;0.82;;
8881;SDS011;4477;48.736;9.176;2022-09-13T12:32:48;1.40;;;0.90;;
8881;SDS011;4477;48.736;9.176;2022-09-13T12:35:20;1.92;;;0.70;;
8881;SDS011;4477;48.736;9.176;2022-09-13T12:38:04;3.00;;;1.00;;
8881;SDS011;4477;48.736;9.176;2022-09-13T12:43:54;1.88;;;0.80;;
8881;SDS011;4477;48.736;9.176;2022-09-13T12:46:50;2.42;;;1.08;;
8881;SDS011;4477;48.736;9.176;2022-09-13T12:49:41;0.90;;;0.80;;
8881;SDS011;4477;48.736;9.176;2022-09-13T12:52:29;2.53;;;1.00;;
8881;SDS011;4477;48.736;9.176;2022-09-13T12:55:09;2.38;;;0.75;;
8881;SDS011;4477;48.736;9.176;2022-09-13T12:58:00;3.80;;;0.80;;
8881;SDS011;4477;48.736;9.176;2022-09-13T13:00:43;2.78;;;0.63;;
8881;SDS011;4477;48.736;9.176;2022-09-13T13:03:24;3.03;;;0.60;;
8881;SDS011;4477;48.736;9.176;2022-09-13T13:05:56;1.38;;;0.70;;
8881;SDS011;4477;48.736;9.176;2022-09-13T13:08:36;1.95;;;0.85;;
8881;SDS011;4477;48.736;9.176;2022-09-13T13:11:04;3.33;;;0.70;;
8881;SDS011;4477;48.736;9.176;2022-09-13T13:13:35;1.00;;;0.80;;
8881;SDS011;4477;48.736;9.176;2022-09-13T13:18:48;3.03;;;0.60;;
8881;SDS011;4477;48.736;9.176;2022-09-13T13:33:16;2.00;;;0.70;;
8881;SDS011;4477;48.736;9.176;2022-09-13T13:35:46;1.45;;;0.70;;
8881;SDS011;4477;48.736;9.176;2022-09-13T13:41:06;2.40;;;0.60;;
8881;SDS011;4477;48.736;9.176;2022-09-13T13:43:50;1.00;;;0.60;;
8881;SDS011;4477;48.736;9.176;2022-09-13T13:46:25;1.75;;;0.70;;
8881;SDS011;4477;48.736;9.176;2022-09-13T13:48:54;1.40;;;0.60;;
8881;SDS011;4477;48.736;9.176;2022-09-13T13:51:22;1.92;;;0.63;;
8881;SDS011;4477;48.736;9.176;2022-09-13T13:53:57;2.13;;;0.93;;
8881;SDS011;4477;48.736;9.176;2022-09-13T13:56:28;0.85;;;0.70;;
8881;SDS011;4477;48.736;9.176;2022-09-13T13:59:02;1.15;;;0.82;;
8881;SDS011;4477;48.736;9.176;2022-09-13T14:01:35;2.97;;;0.82;;
8881;SDS011;4477;48.736;9.176;2022-09-13T14:10:38;1.77;;;0.60;;
8881;SDS011;4477;48.736;9.176;2022-09-13T14:13:19;1.35;;;0.57;;
8881;SDS011;4477;48.736;9.176;2022-09-13T14:16:00;0.85;;;0.52;;
8881;SDS011;4477;48.736;9.176;2022-09-13T14:18:43;2.13;;;0.57;;
8881;SDS011;4477;48.736;9.176;2022-09-13T14:21:25;2.55;;;0.52;;
8881;SDS011;4477;48.736;9.176;2022-09-13T14:24:07;3.00;;;0.60;;
8881;SDS011;4477;48.736;9.176;2022-09-13T14:26:40;1.98;;;0.68;;
8881;SDS011;4477;48.736;9.176;2022-09-13T14:29:08;0.70;;;0.47;;
8881;SDS011;4477;48.736;9.176;2022-09-13T14:31:36;2.53;;;0.70;;
8881;SDS011;4477;48.736;9.176;2022-09-13T14:34:03;0.40;;;0.40;;
8881;SDS011;4477;48.736;9.176;2022-09-13T14:36:30;4.45;;;0.80;;
8881;SDS011;4477;48.736;9.176;2022-09-13T14:38:58;1.25;;;0.40;;
8881;SDS011;4477;48.736;9.176;2022-09-13T14:41:29;0.52;;;0.52;;
8881;SDS011;4477;48.736;9.176;2022-09-13T14:44:12;2.00;;;0.50;;
8881;SDS011;4477;48.736;9.176;2022-09-13T14:46:43;1.67;;;0.63;;
8881;SDS011;4477;48.736;9.176;2022-09-13T14:49:13;2.80;;;0.60;;
8881;SDS011;4477;48.736;9.176;2022-09-13T14:51:47;2.70;;;0.70;;
8881;SDS011;4477;48.736;9.176;2022-09-13T14:54:22;1.13;;;0.60;;
8881;SDS011;4477;48.736;9.176;2022-09-13T14:56:56;1.20;;;0.75;;
8881;SDS011;4477;48.736;9.176;2022-09-13T14:59:27;2.72;;;0.50;;
8881;SDS011;4477;48.736;9.176;2022-09-13T15:01:58;2.53;;;0.50;;
8881;SDS011;4477;48.736;9.176;2022-09-13T15:04:31;4.38;;;0.55;;
8881;SDS011;4477;48.736;9.176;2022-09-13T15:07:05;0.98;;;0.60;;
8881;SDS011;4477;48.736;9.176;2022-09-13T15:09:33;0.65;;;0.40;;
8881;SDS011;4477;48.736;9.176;2022-09-13T15:12:02;1.35;;;0.90;;
8881;SDS011;4477;48.736;9.176;2022-09-13T15:14:30;1.42;;;0.57;;
8881;SDS011;4477;48.736;9.176;2022-09-13T15:17:05;2.05;;;0.50;;
8881;SDS011;4477;48.736;9.176;2022-09-13T15:19:37;2.22;;;0.65;;
8881;SDS011;4477;48.736;9.176;2022-09-13T15:22:16;4.53;;;0.60;;
8881;SDS011;4477;48.736;9.176;2022-09-13T15:24:46;1.27;;;0.50;;
8881;SDS011;4477;48.736;9.176;2022-09-13T15:27:16;0.77;;;0.60;;
8881;SDS011;4477;48.736;9.176;2022-09-13T15:29:49;1.25;;;0.40;;
8881;SDS011;4477;48.736;9.176;2022-09-13T15:32:28;0.98;;;0.50;;
8881;SDS011;4477;48.736;9.176;2022-09-13T15:34:58;0.50;;;0.50;;
8881;SDS011;4477;48.736;9.176;2022-09-13T15:37:31;1.65;;;0.50;;
8881;SDS011;4477;48.736;9.176;2022-09-13T15:40:14;2.10;;;0.50;;
8881;SDS011;4477;48.736;9.176;2022-09-13T15:42:44;4.32;;;0.68;;
8881;SDS011;4477;48.736;9.176;2022-09-13T15:45:12;4.22;;;0.80;;
8881;SDS011;4477;48.736;9.176;2022-09-13T15:47:40;2.67;;;0.80;;
8881;SDS011;4477;48.736;9.176;2022-09-13T15:50:13;1.45;;;0.70;;
8881;SDS011;4477;48.736;9.176;2022-09-13T15:52:45;0.93;;;0.77;;
8881;SDS011;4477;48.736;9.176;2022-09-13T15:55:12;1.63;;;0.70;;
8881;SDS011;4477;48.736;9.176;2022-09-13T15:57:39;2.72;;;1.40;;
8881;SDS011;4477;48.736;9.176;2022-09-13T16:00:09;2.35;;;0.98;;
8881;SDS011;4477;48.736;9.176;2022-09-13T16:02:44;1.52;;;1.00;;
8881;SDS011;4477;48.736;9.176;2022-09-13T16:05:11;2.97;;;1.10;;
8881;SDS011;4477;48.736;9.176;2022-09-13T16:07:39;1.00;;;0.90;;
8881;SDS011;4477;48.736;9.176;2022-09-13T16:10:09;1.05;;;0.90;;
8881;SDS011;4477;48.736;9.176;2022-09-13T16:12:38;0.75;;;0.70;;
8881;SDS011;4477;48.736;9.176;2022-09-13T16:15:05;2.53;;;0.98;;
8881;SDS011;4477;48.736;9.176;2022-09-13T16:17:33;7.00;;;0.90;;
8881;SDS011;4477;48.736;9.176;2022-09-13T16:20:02;3.10;;;1.00;;
8881;SDS011;4477;48.736;9.176;2022-09-13T16:22:30;2.88;;;0.75;;
8881;SDS011;4477;48.736;9.176;2022-09-13T16:24:57;5.15;;;1.08;;
8881;SDS011;4477;48.736;9.176;2022-09-13T16:27:24;2.42;;;1.00;;
8881;SDS011;4477;48.736;9.176;2022-09-13T16:29:51;1.05;;;0.80;;
8881;SDS011;4477;48.736;9.176;2022-09-13T16:32:19;1.30;;;0.85;;